createdAt,value
2022-10-17T00:00:08.367Z,99736.97
2022-10-17T00:02:35.108Z,99742.94
2022-10-17T00:05:01.783Z,99735.94
2022-10-17T00:07:28.798Z,99753.38
2022-10-17T00:09:55.829Z,99745.63
2022-10-17T00:12:22.631Z,99746.38
2022-10-17T00:14:49.242Z,99739.66
2022-10-17T00:17:16.559Z,99746.34
2022-10-17T00:19:43.237Z,99765.41
2022-10-17T00:22:10.105Z,99759.31
2022-10-17T00:24:36.828Z,99766.25
2022-10-17T00:27:03.716Z,99759.38
2022-10-17T00:29:30.612Z,99760.22
2022-10-17T00:31:57.588Z,99784.41
2022-10-17T00:34:25.435Z,99787.00
2022-10-17T00:36:52.423Z,99784.41
2022-10-17T00:39:19.240Z,99783.63
2022-10-17T00:41:46.167Z,99787.16
2022-10-17T00:44:31.262Z,99779.44
2022-10-17T00:47:01.616Z,99784.56
2022-10-17T00:49:32.988Z,99775.94
2022-10-17T00:52:15.906Z,99787.31
2022-10-17T00:54:49.707Z,99791.66
2022-10-17T00:57:17.815Z,99784.63
2022-10-17T00:59:48.884Z,99791.56
2022-10-17T01:02:18.540Z,99798.47
2022-10-17T01:04:48.887Z,99808.09
2022-10-17T01:07:15.670Z,99804.44
2022-10-17T01:09:45.182Z,99799.41
2022-10-17T01:12:31.757Z,99804.50
2022-10-17T01:15:23.202Z,99797.63
2022-10-17T01:18:24.937Z,99786.34
2022-10-17T01:21:26.816Z,99789.88
2022-10-17T01:24:11.623Z,99795.88
2022-10-17T01:26:59.737Z,99804.56
2022-10-17T01:29:44.260Z,99802.88
2022-10-17T01:32:16.034Z,99799.44
2022-10-17T01:34:53.097Z,99791.63
2022-10-17T01:37:41.315Z,99802.91
2022-10-17T01:40:13.766Z,99802.81
2022-10-17T01:42:59.129Z,99806.31
2022-10-17T01:45:37.612Z,99803.69
2022-10-17T01:48:11.513Z,99798.59
2022-10-17T01:50:43.642Z,99803.63
2022-10-17T01:53:27.312Z,99798.53
2022-10-17T01:58:33.732Z,99803.69
2022-10-17T02:01:04.635Z,99797.75
2022-10-17T02:03:32.394Z,99803.72
2022-10-17T02:05:58.909Z,99804.53
2022-10-17T02:08:45.006Z,99813.13
2022-10-17T02:11:22.335Z,99811.47
2022-10-17T02:14:15.856Z,99816.63
2022-10-17T02:17:01.116Z,99813.13
2022-10-17T02:19:57.727Z,99826.13
2022-10-17T02:22:33.578Z,99827.81
2022-10-17T02:25:49.406Z,99830.44
2022-10-17T02:28:15.882Z,99837.41
2022-10-17T02:30:49.943Z,99847.78
2022-10-17T02:33:30.944Z,99833.19
2022-10-17T02:36:03.330Z,99839.31
2022-10-17T02:38:31.750Z,99836.72
2022-10-17T02:40:59.275Z,99832.47
2022-10-17T02:43:26.136Z,99828.09
2022-10-17T02:45:54.048Z,99823.75
2022-10-17T02:48:44.135Z,99836.56
2022-10-17T02:51:34.971Z,99844.59
2022-10-17T02:54:11.486Z,99867.06
2022-10-17T02:56:46.347Z,99879.22
2022-10-17T02:59:16.439Z,99897.56
2022-10-17T03:01:44.111Z,99886.28
2022-10-17T03:04:13.620Z,99900.03
2022-10-17T03:06:41.379Z,99890.50
2022-10-17T03:09:08.202Z,99877.47
2022-10-17T03:11:34.758Z,99886.13
2022-10-17T03:14:01.291Z,99881.69
2022-10-17T03:16:27.855Z,99885.25
2022-10-17T03:18:54.378Z,99876.41
2022-10-17T03:21:21.067Z,99881.75
2022-10-17T03:23:47.621Z,99895.66
2022-10-17T03:26:14.303Z,99895.78
2022-10-17T03:28:40.862Z,99894.78
2022-10-17T03:31:13.052Z,99904.25
2022-10-17T03:33:39.734Z,99908.63
2022-10-17T03:36:07.948Z,99907.84
2022-10-17T03:38:35.250Z,99897.53
2022-10-17T03:41:02.740Z,99902.63
2022-10-17T03:43:29.520Z,99904.41
2022-10-17T03:45:58.104Z,99901.84
2022-10-17T03:48:26.042Z,99903.63
2022-10-17T03:50:58.087Z,99908.03
2022-10-17T03:53:24.586Z,99915.03
2022-10-17T03:55:51.074Z,99915.78
2022-10-17T03:58:17.562Z,99921.09
2022-10-17T04:00:44.091Z,99900.31
2022-10-17T04:03:14.932Z,99916.00
2022-10-17T04:05:43.890Z,99920.13
2022-10-17T04:08:10.441Z,99926.34
2022-10-17T04:10:36.956Z,99927.13
2022-10-17T04:13:03.515Z,99922.84
2022-10-17T04:15:30.070Z,99924.56
2022-10-17T04:17:56.597Z,99926.38
2022-10-17T04:20:23.130Z,99927.25
2022-10-17T04:22:49.606Z,99924.63
2022-10-17T04:25:16.164Z,99919.41
2022-10-17T04:27:42.635Z,99930.69
2022-10-17T04:30:09.460Z,99933.25
2022-10-17T04:32:41.677Z,99931.63
2022-10-17T04:35:09.026Z,99936.69
2022-10-17T04:37:35.583Z,99939.38
2022-10-17T04:40:02.045Z,99942.88
2022-10-17T04:42:29.559Z,99942.88
2022-10-17T04:44:56.272Z,99951.41
2022-10-17T04:47:22.782Z,99938.41
2022-10-17T04:49:49.241Z,99954.00
2022-10-17T04:52:16.289Z,99954.06
2022-10-17T04:54:42.784Z,99959.13
2022-10-17T04:57:09.375Z,99962.41
2022-10-17T04:59:36.019Z,99974.75
2022-10-17T05:02:02.553Z,99976.53
2022-10-17T05:04:29.090Z,99958.34
2022-10-17T05:06:55.637Z,99966.19
2022-10-17T05:09:22.108Z,99968.91
2022-10-17T05:11:48.913Z,99976.66
2022-10-17T05:14:15.625Z,99979.22
2022-10-17T05:16:42.263Z,99991.41
2022-10-17T05:19:08.837Z,99997.38
2022-10-17T05:21:37.432Z,100005.25
2022-10-17T05:24:09.416Z,100004.47
2022-10-17T05:26:36.466Z,100001.84
2022-10-17T05:29:03.435Z,100013.13
2022-10-17T05:31:30.463Z,100009.63
2022-10-17T05:34:01.354Z,100022.69
2022-10-17T05:36:28.150Z,100016.56
2022-10-17T05:38:54.717Z,100031.31
2022-10-17T05:41:21.381Z,100023.53
2022-10-17T05:43:47.914Z,100033.06
2022-10-17T05:46:14.428Z,100040.03
2022-10-17T05:48:40.930Z,100039.06
2022-10-17T05:51:09.906Z,100048.56
2022-10-17T05:53:39.539Z,100047.75
2022-10-17T05:56:08.155Z,100038.28
2022-10-17T05:58:53.224Z,100048.59
2022-10-17T06:01:21.748Z,100044.34
2022-10-17T06:03:48.302Z,100053.13
2022-10-17T06:06:15.719Z,100043.63
2022-10-17T06:08:42.887Z,100040.94
2022-10-17T06:11:10.508Z,100034.84
2022-10-17T06:13:38.621Z,100039.09
2022-10-17T06:16:06.234Z,100040.09
2022-10-17T06:18:33.441Z,100037.50
2022-10-17T06:21:06.005Z,100040.94
2022-10-17T06:23:32.889Z,100048.78
2022-10-17T06:26:01.043Z,100046.13
2022-10-17T06:28:27.916Z,100039.06
2022-10-17T06:30:54.831Z,100036.38
2022-10-17T06:33:23.209Z,100050.34
2022-10-17T06:35:54.486Z,100051.97
2022-10-17T06:38:21.290Z,100059.09
2022-10-17T06:40:47.861Z,100050.28
2022-10-17T06:43:14.503Z,100047.91
2022-10-17T06:45:41.776Z,100061.50
2022-10-17T06:48:08.829Z,100072.75
2022-10-17T06:50:36.014Z,100056.50
2022-10-17T06:53:02.676Z,100050.53
2022-10-17T06:55:30.681Z,100037.50
2022-10-17T06:57:57.388Z,100043.53
2022-10-17T07:00:24.023Z,100057.41
2022-10-17T07:02:50.529Z,100059.09
2022-10-17T07:05:19.190Z,100052.16
2022-10-17T07:07:47.514Z,100057.25
2022-10-17T07:10:16.311Z,100061.56
2022-10-17T07:12:44.737Z,100082.34
2022-10-17T07:15:12.798Z,100082.34
2022-10-17T07:17:39.509Z,100089.28
2022-10-17T07:20:06.582Z,100091.78
2022-10-17T07:22:33.157Z,100114.38
2022-10-17T07:24:59.716Z,100130.88
2022-10-17T07:27:26.377Z,100134.28
2022-10-17T07:29:53.056Z,100144.59
2022-10-17T07:32:19.560Z,100140.25
2022-10-17T07:34:46.037Z,100155.84
2022-10-17T07:37:12.627Z,100141.75
2022-10-17T07:39:40.067Z,100140.88
2022-10-17T07:42:07.721Z,100138.34
2022-10-17T07:44:35.494Z,100148.66
2022-10-17T07:47:02.256Z,100155.69
2022-10-17T07:49:29.322Z,100156.44
2022-10-17T07:51:55.923Z,100158.22
2022-10-17T07:54:22.719Z,100167.66
2022-10-17T07:56:50.664Z,100170.25
2022-10-17T07:59:20.642Z,100164.13
2022-10-17T08:01:47.214Z,100174.47
2022-10-17T08:04:14.050Z,100166.63
2022-10-17T08:06:40.527Z,100176.25
2022-10-17T08:09:07.096Z,100171.81
2022-10-17T08:11:33.749Z,100168.50
2022-10-17T08:14:00.271Z,100177.13
2022-10-17T08:16:26.818Z,100171.06
2022-10-17T08:18:53.374Z,100171.94
2022-10-17T08:21:19.970Z,100173.69
2022-10-17T08:23:46.666Z,100201.44
2022-10-17T08:26:16.814Z,100204.81
2022-10-17T08:28:43.773Z,100221.88
2022-10-17T08:31:14.126Z,100227.91
2022-10-17T08:33:42.876Z,100219.28
2022-10-17T08:36:10.098Z,100218.91
2022-10-17T08:38:40.321Z,100213.72
2022-10-17T08:41:51.050Z,100211.06
2022-10-17T08:44:42.365Z,100209.63
2022-10-17T08:47:19.698Z,100206.09
2022-10-17T08:49:57.383Z,100217.06
2022-10-17T08:52:34.653Z,100205.91
2022-10-17T08:55:01.340Z,100195.56
2022-10-17T08:57:29.109Z,100216.59
2022-10-17T08:59:56.871Z,100240.09
2022-10-17T09:02:42.124Z,100238.97
2022-10-17T09:05:23.983Z,100260.84
2022-10-17T09:08:10.233Z,100259.66
2022-10-17T09:10:42.434Z,100264.84
2022-10-17T09:13:34.287Z,100253.91
2022-10-17T09:16:19.214Z,100258.72
2022-10-17T09:19:30.757Z,100260.75
2022-10-17T09:22:05.769Z,100278.81
2022-10-17T09:24:51.112Z,100284.81
2022-10-17T09:27:36.102Z,100289.88
2022-10-17T09:30:46.190Z,100305.66
2022-10-17T09:33:34.385Z,100319.44
2022-10-17T09:36:05.489Z,100325.22
2022-10-17T09:38:39.705Z,100326.22
2022-10-17T09:44:13.716Z,100327.22
2022-10-17T09:46:40.329Z,100328.81
2022-10-17T09:49:17.428Z,100327.94
2022-10-17T09:51:44.242Z,100338.56
2022-10-17T09:54:24.084Z,100341.94
2022-10-17T09:57:00.193Z,100365.59
2022-10-17T09:59:34.074Z,100363.75
2022-10-17T10:02:12.646Z,100350.47
2022-10-17T10:05:06.739Z,100363.81
2022-10-17T10:07:38.179Z,100379.50
2022-10-17T10:10:07.565Z,100376.31
2022-10-17T10:12:38.213Z,100372.00
2022-10-17T10:15:32.405Z,100365.78
2022-10-17T10:17:59.075Z,100374.75
2022-10-17T10:20:37.634Z,100385.09
2022-10-17T10:23:08.185Z,100396.59
2022-10-17T10:25:36.003Z,100408.75
2022-10-17T10:28:09.661Z,100398.16
2022-10-17T10:30:39.175Z,100404.41
2022-10-17T10:33:06.707Z,100396.78
2022-10-17T10:35:36.152Z,100398.88
2022-10-17T10:38:10.967Z,100405.00
2022-10-17T10:40:54.008Z,100410.00
2022-10-17T10:43:35.643Z,100406.72
2022-10-17T10:46:06.153Z,100425.84
2022-10-17T10:48:36.483Z,100427.66
2022-10-17T10:51:13.034Z,100430.41
2022-10-17T10:53:45.631Z,100439.72
2022-10-17T10:56:26.018Z,100467.88
2022-10-17T10:59:19.829Z,100485.47
2022-10-17T11:01:59.721Z,100493.25
2022-10-17T11:04:55.072Z,100489.88
2022-10-17T11:07:36.548Z,100487.97
2022-10-17T11:10:10.117Z,100484.50
2022-10-17T11:12:39.026Z,100478.44
2022-10-17T11:15:28.154Z,100486.69
2022-10-17T11:17:59.847Z,100481.41
2022-10-17T11:20:58.188Z,100467.25
2022-10-17T11:23:36.671Z,100463.66
2022-10-17T11:26:11.352Z,100451.72
2022-10-17T11:28:37.983Z,100447.84
2022-10-17T11:31:09.618Z,100446.53
2022-10-17T11:33:56.950Z,100452.50
2022-10-17T11:36:34.779Z,100438.56
2022-10-17T11:39:06.671Z,100426.13
2022-10-17T11:41:55.207Z,100407.66
2022-10-17T11:44:41.972Z,100402.25
2022-10-17T11:47:23.686Z,100388.97
2022-10-17T11:53:30.619Z,100384.22
2022-10-17T11:56:00.654Z,100372.03
2022-10-17T12:01:01.758Z,100394.72
2022-10-17T12:03:46.875Z,100376.41
2022-10-17T12:06:31.572Z,100376.44
2022-10-17T12:09:19.942Z,100379.75
2022-10-17T12:11:50.857Z,100379.63
2022-10-17T12:14:35.920Z,100369.00
2022-10-17T12:17:04.354Z,100372.91
2022-10-17T12:19:33.909Z,100363.16
2022-10-17T12:22:00.470Z,100359.09
2022-10-17T12:24:35.680Z,100353.72
2022-10-17T12:27:38.435Z,100356.06
2022-10-17T12:30:16.362Z,100351.72
2022-10-17T12:33:21.842Z,100331.81
2022-10-17T12:35:51.277Z,100327.75
2022-10-17T12:38:17.778Z,100314.28
2022-10-17T12:40:48.708Z,100313.56
2022-10-17T12:43:15.668Z,100324.28
2022-10-17T12:45:49.756Z,100333.84
2022-10-17T12:48:34.490Z,100341.84
2022-10-17T12:51:23.736Z,100334.72
2022-10-17T12:53:58.509Z,100321.59
2022-10-17T12:56:35.363Z,100329.22
2022-10-17T12:59:09.258Z,100325.53
2022-10-17T13:01:39.962Z,100317.91
2022-10-17T13:04:10.733Z,100320.28
2022-10-17T13:06:45.156Z,100322.38
2022-10-17T13:09:25.171Z,100317.81
2022-10-17T13:11:52.531Z,100321.16
2022-10-17T13:14:21.396Z,100312.09
2022-10-17T13:17:00.881Z,100310.09
2022-10-17T13:19:41.154Z,100311.38
2022-10-17T13:22:17.938Z,100314.59
2022-10-17T13:24:45.303Z,100322.19
2022-10-17T13:27:30.266Z,100332.78
2022-10-17T13:30:00.852Z,100327.09
2022-10-17T13:32:39.270Z,100325.59
2022-10-17T13:35:14.624Z,100318.59
2022-10-17T13:37:43.673Z,100322.44
2022-10-17T13:43:18.985Z,100314.94
2022-10-17T13:45:52.266Z,100314.50
2022-10-17T13:48:27.530Z,100319.81
2022-10-17T13:51:01.760Z,100320.75
2022-10-17T13:53:39.760Z,100317.25
2022-10-17T13:56:34.218Z,100318.91
2022-10-17T13:59:08.410Z,100316.47
2022-10-17T14:01:35.226Z,100307.84
2022-10-17T14:04:08.931Z,100311.28
2022-10-17T14:06:49.639Z,100304.56
2022-10-17T14:09:30.198Z,100314.97
2022-10-17T14:12:01.779Z,100313.38
2022-10-17T14:14:30.364Z,100312.44
2022-10-17T14:17:01.170Z,100309.75
2022-10-17T14:19:31.355Z,100312.34
2022-10-17T14:22:38.377Z,100298.47
2022-10-17T14:25:06.075Z,100294.00
2022-10-17T14:27:39.753Z,100301.09
2022-10-17T14:30:07.878Z,100302.00
2022-10-17T14:32:37.302Z,100304.53
2022-10-17T14:35:24.423Z,100310.16
2022-10-17T14:37:57.751Z,100305.09
2022-10-17T14:40:27.303Z,100309.41
2022-10-17T14:42:56.937Z,100314.53
2022-10-17T14:45:39.761Z,100317.19
2022-10-17T14:48:16.592Z,100320.75
2022-10-17T14:51:09.823Z,100330.03
2022-10-17T14:53:37.733Z,100321.41
2022-10-17T14:56:21.413Z,100318.72
2022-10-17T14:58:48.018Z,100323.22
2022-10-17T15:01:14.539Z,100323.53
2022-10-17T15:03:41.155Z,100312.22
2022-10-17T15:06:19.281Z,100303.63
2022-10-17T15:08:45.927Z,100315.31
2022-10-17T15:11:12.738Z,100317.59
2022-10-17T15:13:44.664Z,100315.16
2022-10-17T15:16:18.442Z,100317.78
2022-10-17T15:18:45.093Z,100313.47
2022-10-17T15:21:33.728Z,100311.84
2022-10-17T15:24:01.763Z,100310.69
2022-10-17T15:26:32.578Z,100316.78
2022-10-17T15:28:59.624Z,100319.59
2022-10-17T15:31:27.625Z,100339.06
2022-10-17T15:33:54.190Z,100340.81
2022-10-17T15:36:23.871Z,100344.31
2022-10-17T15:38:53.292Z,100345.22
2022-10-17T15:41:20.113Z,100336.56
2022-10-17T15:43:49.692Z,100342.69
2022-10-17T15:46:22.767Z,100345.34
2022-10-17T15:48:50.113Z,100338.31
2022-10-17T15:51:17.582Z,100341.09
2022-10-17T15:53:44.370Z,100335.16
2022-10-17T15:56:23.140Z,100346.41
2022-10-17T15:58:50.113Z,100354.19
2022-10-17T16:01:29.606Z,100355.28
2022-10-17T16:03:56.630Z,100362.16
2022-10-17T16:06:24.394Z,100358.94
2022-10-17T16:08:51.949Z,100363.41
2022-10-17T16:11:37.466Z,100358.75
2022-10-17T16:14:06.431Z,100357.06
2022-10-17T16:16:33.025Z,100356.00
2022-10-17T16:18:59.675Z,100360.47
2022-10-17T16:24:01.663Z,100352.66
2022-10-17T16:26:28.783Z,100342.47
2022-10-17T16:28:57.410Z,100352.97
2022-10-17T16:31:31.092Z,100346.22
2022-10-17T16:33:59.429Z,100354.25
2022-10-17T16:36:25.914Z,100350.75
2022-10-17T16:38:54.118Z,100356.19
2022-10-17T16:41:22.674Z,100364.91
2022-10-17T16:43:50.639Z,100364.75
2022-10-17T16:46:17.910Z,100369.31
2022-10-17T16:48:45.431Z,100353.03
2022-10-17T16:51:13.879Z,100362.56
2022-10-17T16:53:43.873Z,100346.09
2022-10-17T16:56:14.273Z,100349.75
2022-10-17T16:58:42.221Z,100346.25
2022-10-17T17:01:20.480Z,100356.91
2022-10-17T17:03:47.634Z,100360.31
2022-10-17T17:06:20.752Z,100376.00
2022-10-17T17:08:47.975Z,100375.16
2022-10-17T17:11:17.975Z,100372.09
2022-10-17T17:13:45.216Z,100372.88
2022-10-17T17:16:22.769Z,100367.56
2022-10-17T17:18:53.459Z,100372.19
2022-10-17T17:21:20.006Z,100372.09
2022-10-17T17:23:46.830Z,100370.38
2022-10-17T17:26:17.023Z,100372.28
2022-10-17T17:28:44.482Z,100365.16
2022-10-17T17:31:17.907Z,100378.25
2022-10-17T17:33:46.693Z,100374.19
2022-10-17T17:36:17.518Z,100368.06
2022-10-17T17:38:45.312Z,100372.47
2022-10-17T17:41:13.901Z,100377.59
2022-10-17T17:43:41.265Z,100382.84
2022-10-17T17:46:08.437Z,100398.50
2022-10-17T17:48:39.439Z,100400.34
2022-10-17T17:51:08.111Z,100407.13
2022-10-17T17:53:35.239Z,100405.63
2022-10-17T17:56:17.323Z,100411.00
2022-10-17T17:58:46.544Z,100411.69
2022-10-17T18:01:21.393Z,100412.63
2022-10-17T18:03:49.603Z,100417.88
2022-10-17T18:06:17.030Z,100419.81
2022-10-17T18:08:45.546Z,100419.91
2022-10-17T18:11:12.271Z,100423.44
2022-10-17T18:13:39.214Z,100414.72
2022-10-17T18:16:13.198Z,100419.09
2022-10-17T18:18:41.598Z,100414.72
2022-10-17T18:21:09.003Z,100410.47
2022-10-17T18:23:39.835Z,100411.28
2022-10-17T18:26:07.146Z,100402.69
2022-10-17T18:28:35.769Z,100409.66
2022-10-17T18:31:24.449Z,100398.34
2022-10-17T18:33:52.961Z,100408.75
2022-10-17T18:36:20.960Z,100400.19
2022-10-17T18:38:48.764Z,100402.81
2022-10-17T18:41:18.217Z,100399.28
2022-10-17T18:43:46.377Z,100403.47
2022-10-17T18:46:19.532Z,100402.66
2022-10-17T18:48:47.688Z,100405.25
2022-10-17T18:51:16.694Z,100410.41
2022-10-17T18:53:45.485Z,100400.13
2022-10-17T18:56:12.965Z,100400.09
2022-10-17T18:58:40.550Z,100412.22
2022-10-17T19:01:10.680Z,100398.38
2022-10-17T19:03:38.512Z,100394.94
2022-10-17T19:06:10.199Z,100391.44
2022-10-17T19:08:37.765Z,100385.38
2022-10-17T19:11:09.772Z,100373.41
2022-10-17T19:13:36.801Z,100372.34
2022-10-17T19:16:08.357Z,100367.31
2022-10-17T19:18:36.419Z,100367.34
2022-10-17T19:21:04.675Z,100372.41
2022-10-17T19:23:31.814Z,100371.69
2022-10-17T19:26:07.823Z,100364.78
2022-10-17T19:28:36.426Z,100366.56
2022-10-17T19:31:03.642Z,100361.31
2022-10-17T19:33:31.989Z,100362.22
2022-10-17T19:36:00.707Z,100357.84
2022-10-17T19:38:27.281Z,100370.00
2022-10-17T19:40:53.999Z,100369.97
2022-10-17T19:43:21.820Z,100361.28
2022-10-17T19:45:58.853Z,100365.66
2022-10-17T19:48:26.299Z,100373.44
2022-10-17T19:50:53.715Z,100377.78
2022-10-17T19:53:23.110Z,100381.22
2022-10-17T19:55:50.245Z,100399.50
2022-10-17T19:58:16.890Z,100394.34
2022-10-17T20:00:48.326Z,100385.69
2022-10-17T20:03:14.818Z,100405.63
2022-10-17T20:05:41.557Z,100408.25
2022-10-17T20:08:08.217Z,100408.31
2022-10-17T20:10:34.762Z,100417.81
2022-10-17T20:13:01.674Z,100422.13
2022-10-17T20:15:28.382Z,100430.84
2022-10-17T20:17:55.009Z,100433.41
2022-10-17T20:20:21.860Z,100435.19
2022-10-17T20:22:48.385Z,100432.59
2022-10-17T20:25:14.980Z,100433.47
2022-10-17T20:27:41.520Z,100420.47
2022-10-17T20:30:08.685Z,100420.44
2022-10-17T20:32:39.620Z,100414.38
2022-10-17T20:35:07.587Z,100410.94
2022-10-17T20:37:39.883Z,100409.19
2022-10-17T20:42:56.197Z,100419.66
2022-10-17T20:45:37.369Z,100403.13
2022-10-17T20:48:16.355Z,100386.88
2022-10-17T20:50:45.754Z,100408.34
2022-10-17T20:56:25.429Z,100410.09
2022-10-17T20:58:57.244Z,100422.19
2022-10-17T21:01:25.916Z,100429.97
2022-10-17T21:03:53.000Z,100433.44
2022-10-17T21:06:20.348Z,100432.59
2022-10-17T21:08:48.273Z,100411.00
2022-10-17T21:11:21.176Z,100399.66
2022-10-17T21:13:48.684Z,100399.69
2022-10-17T21:16:18.231Z,100397.06
2022-10-17T21:18:45.966Z,100398.84
2022-10-17T21:21:20.983Z,100392.72
2022-10-17T21:23:49.318Z,100398.75
2022-10-17T21:26:17.399Z,100390.09
2022-10-17T21:28:45.484Z,100379.66
2022-10-17T21:31:18.171Z,100390.09
2022-10-17T21:33:48.714Z,100391.84
2022-10-17T21:36:16.864Z,100392.69
2022-10-17T21:38:45.547Z,100399.59
2022-10-17T21:41:14.121Z,100394.44
2022-10-17T21:43:41.514Z,100389.22
2022-10-17T21:46:16.130Z,100401.34
2022-10-17T21:48:43.428Z,100388.41
2022-10-17T21:51:12.606Z,100380.56
2022-10-17T21:53:39.479Z,100391.91
2022-10-17T21:56:12.078Z,100388.38
2022-10-17T21:58:38.823Z,100397.94
2022-10-17T22:01:07.955Z,100396.19
2022-10-17T22:03:41.328Z,100404.00
2022-10-17T22:06:38.605Z,100410.09
2022-10-17T22:08:59.168Z,100398.78
2022-10-17T22:11:29.262Z,100388.41
2022-10-17T22:13:57.483Z,100372.81
2022-10-17T22:16:24.679Z,100370.13
2022-10-17T22:18:51.706Z,100371.84
2022-10-17T22:21:22.171Z,100375.38
2022-10-17T22:24:26.659Z,100379.66
2022-10-17T22:26:53.203Z,100377.97
2022-10-17T22:29:20.187Z,100387.50
2022-10-17T22:31:47.180Z,100399.69
2022-10-17T22:34:15.806Z,100392.75
2022-10-17T22:36:42.523Z,100379.75
2022-10-17T22:39:09.695Z,100371.88
2022-10-17T22:41:36.566Z,100370.16
2022-10-17T22:44:03.455Z,100369.31
2022-10-17T22:46:30.050Z,100373.63
2022-10-17T22:48:56.617Z,100377.97
2022-10-17T22:53:55.109Z,100385.81
2022-10-17T22:56:24.076Z,100378.91
2022-10-17T22:58:51.527Z,100372.81
2022-10-17T23:01:20.620Z,100371.91
2022-10-17T23:03:47.391Z,100378.91
2022-10-17T23:06:13.917Z,100391.00
2022-10-17T23:08:41.376Z,100385.91
2022-10-17T23:11:08.163Z,100368.53
2022-10-17T23:13:36.531Z,100360.69
2022-10-17T23:16:04.300Z,100370.19
2022-10-17T23:21:02.501Z,100378.03
2022-10-17T23:23:29.222Z,100370.22
2022-10-17T23:25:56.518Z,100352.06
2022-10-17T23:28:23.071Z,100346.84
2022-10-17T23:30:49.773Z,100356.41
2022-10-17T23:33:16.383Z,100358.13
2022-10-17T23:35:42.903Z,100358.13
2022-10-17T23:38:10.026Z,100376.38
2022-10-17T23:40:36.662Z,100372.88
2022-10-17T23:43:04.360Z,100372.00
2022-10-17T23:45:36.010Z,100353.75
2022-10-17T23:48:04.902Z,100352.75
2022-10-17T23:50:31.442Z,100349.44
2022-10-17T23:52:57.974Z,100332.94
2022-10-17T23:55:24.508Z,100316.53
2022-10-17T23:57:52.905Z,100310.47
